Volk Field Camp Douglas US
ICAO: KVOK
IATA: VOK
Category: Medium
Scheduled Services: No

Elevation: 912 ft
TransAlt. 18000 ft.

Airport Communications:
APP/DEP:135.25
CTAF:127.5
GND:121.9
HARDWOOD RANGE:132.025
SHEBOYGAN RANGE:26.04
PTD:37.22
TWR:127.5

KVOK Zoom In..

Runways:

(A) RW 09 length 9000 ft width 150 ft
---- / hdg 89

(B) RW 27 length 9000 ft width 150 ft
ILS 108.50 / hdg 269

Location; KVOK
Day. 20 / Time. 02.56 Zulu
* Altimeter: 29.72
* Temperature: 19° c. 66.2°f.
* Wind from: 060° Speed 04 kn.
Dewpoint: 19° c.
Visibility: 10 Statute Miles.
Clouds: Scattered 3900 ft.
Clouds: Broken 8500 ft.

KVOK 200256Z AUTO 06004KT 10SM SCT039 BKN085 19/19 A2972 RMK AO2 SLP063 T01930193 57018


Wind From 060°
Speed 04 kn.

 
 
jpsmedia.com for Web Design worldairports.se 2018   terms of use